createdAt,value
2022-09-18T00:01:11.192Z,95.90
2022-09-18T00:03:39.129Z,95.54
2022-09-18T00:06:10.611Z,95.64
2022-09-18T00:08:39.160Z,95.75
2022-09-18T00:11:09.254Z,95.70
2022-09-18T00:13:38.633Z,95.79
2022-09-18T00:16:07.788Z,95.65
2022-09-18T00:18:35.878Z,95.80
2022-09-18T00:21:05.937Z,96.07
2022-09-18T00:23:35.263Z,96.11
2022-09-18T00:26:03.285Z,96.33
2022-09-18T00:28:32.523Z,96.72
2022-09-18T00:31:05.829Z,96.92
2022-09-18T00:33:34.470Z,96.74
2022-09-18T00:36:03.400Z,97.06
2022-09-18T00:38:32.772Z,97.12
2022-09-18T00:41:03.764Z,97.10
2022-09-18T00:43:34.279Z,97.54
2022-09-18T00:46:05.410Z,97.37
2022-09-18T00:48:41.658Z,97.62
2022-09-18T00:51:10.248Z,97.65
2022-09-18T00:53:41.796Z,97.68
2022-09-18T00:56:14.987Z,97.87
2022-09-18T00:58:43.369Z,97.93
2022-09-18T01:01:11.421Z,98.28
2022-09-18T01:03:39.769Z,98.36
2022-09-18T01:06:14.856Z,98.42
2022-09-18T01:08:56.527Z,98.32
2022-09-18T01:11:39.490Z,98.23
2022-09-18T01:14:17.526Z,98.19
2022-09-18T01:16:54.212Z,98.41
2022-09-18T01:19:38.314Z,98.27
2022-09-18T01:22:22.284Z,98.59
2022-09-18T01:25:08.055Z,98.43
2022-09-18T01:27:48.111Z,98.31
2022-09-18T01:30:15.856Z,98.50
2022-09-18T01:32:48.497Z,98.48
2022-09-18T01:35:40.711Z,98.70
2022-09-18T01:38:14.627Z,98.86
2022-09-18T01:40:48.304Z,99.12
2022-09-18T01:43:21.202Z,99.18
2022-09-18T01:45:51.630Z,99.31
2022-09-18T01:48:29.046Z,99.61
2022-09-18T01:51:07.320Z,99.70
2022-09-18T01:53:40.222Z,99.49
2022-09-18T01:56:13.199Z,99.44
2022-09-18T01:58:43.258Z,99.39
2022-09-18T02:01:14.654Z,99.76
2022-09-18T02:03:46.999Z,99.98
2022-09-18T02:06:20.091Z,99.99
2022-09-18T02:08:50.493Z,99.99
2022-09-18T02:11:22.419Z,99.99
2022-09-18T02:13:56.832Z,99.99
2022-09-18T02:16:37.799Z,99.99
2022-09-18T02:19:11.462Z,99.99
2022-09-18T02:21:42.690Z,99.99
2022-09-18T02:24:13.130Z,99.99
2022-09-18T02:26:42.695Z,99.99
2022-09-18T02:29:14.590Z,99.99
2022-09-18T02:31:42.731Z,99.99
2022-09-18T02:34:13.592Z,99.99
2022-09-18T02:36:56.629Z,99.94
2022-09-18T02:39:35.066Z,99.82
2022-09-18T02:42:15.016Z,99.31
2022-09-18T02:44:49.887Z,98.97
2022-09-18T02:47:31.602Z,99.04
2022-09-18T02:50:08.713Z,99.23
2022-09-18T02:52:46.762Z,99.15
2022-09-18T02:55:19.387Z,98.99
2022-09-18T02:57:51.232Z,99.28
2022-09-18T03:00:21.362Z,99.51
2022-09-18T03:02:51.766Z,99.61
2022-09-18T03:05:32.445Z,99.63
2022-09-18T03:08:02.539Z,99.89
2022-09-18T03:10:32.379Z,99.99
2022-09-18T03:13:01.115Z,99.99
2022-09-18T03:15:30.523Z,99.99
2022-09-18T03:17:58.923Z,99.99
2022-09-18T03:20:26.852Z,99.99
2022-09-18T03:22:54.901Z,99.99
2022-09-18T03:25:22.918Z,99.99
2022-09-18T03:27:55.149Z,99.99
2022-09-18T03:30:31.849Z,99.99
2022-09-18T03:33:00.165Z,99.99
2022-09-18T03:35:29.316Z,99.99
2022-09-18T03:37:57.439Z,99.99
2022-09-18T03:40:30.835Z,99.99
2022-09-18T03:43:02.282Z,99.99
2022-09-18T03:45:31.625Z,99.99
2022-09-18T03:48:00.869Z,99.99
2022-09-18T03:50:30.101Z,99.99
2022-09-18T03:52:58.322Z,99.99
2022-09-18T03:55:37.472Z,99.99
2022-09-18T03:58:23.813Z,99.99
2022-09-18T04:01:05.148Z,99.99
2022-09-18T04:03:44.153Z,99.99
2022-09-18T04:06:30.314Z,99.99
2022-09-18T04:09:24.085Z,99.99
2022-09-18T04:11:54.869Z,99.99
2022-09-18T04:14:25.598Z,99.99
2022-09-18T04:16:58.998Z,99.99
2022-09-18T04:19:27.004Z,99.99
2022-09-18T04:21:54.962Z,99.99
2022-09-18T04:24:23.064Z,99.99
2022-09-18T04:26:51.024Z,99.99
2022-09-18T04:29:22.128Z,99.99
2022-09-18T04:31:51.636Z,99.99
2022-09-18T04:34:23.454Z,99.99
2022-09-18T04:36:51.443Z,99.99
2022-09-18T04:39:19.522Z,99.99
2022-09-18T04:41:47.478Z,99.99
2022-09-18T04:44:15.707Z,99.99
2022-09-18T04:46:44.681Z,99.99
2022-09-18T04:49:14.393Z,99.99
2022-09-18T04:51:44.084Z,99.99
2022-09-18T04:54:12.165Z,99.99
2022-09-18T04:56:41.138Z,99.99
2022-09-18T04:59:09.264Z,99.81
2022-09-18T05:01:41.143Z,99.72
2022-09-18T05:04:12.913Z,99.88
2022-09-18T05:06:51.410Z,99.76
2022-09-18T05:09:20.132Z,99.58
2022-09-18T05:11:49.028Z,99.87
2022-09-18T05:14:18.011Z,99.71
2022-09-18T05:16:49.038Z,99.82
2022-09-18T05:19:30.027Z,99.99
2022-09-18T05:22:07.127Z,99.99
2022-09-18T05:24:39.566Z,99.99
2022-09-18T05:27:07.526Z,99.99
2022-09-18T05:29:35.678Z,99.84
2022-09-18T05:32:11.646Z,99.98
2022-09-18T05:34:40.098Z,99.99
2022-09-18T05:37:10.400Z,99.99
2022-09-18T05:39:40.395Z,99.99
2022-09-18T05:42:08.418Z,99.99
2022-09-18T05:44:36.419Z,99.99
2022-09-18T05:47:13.175Z,99.99
2022-09-18T05:49:42.086Z,99.99
2022-09-18T05:52:11.579Z,99.99
2022-09-18T05:54:40.690Z,99.99
2022-09-18T05:57:10.189Z,99.99
2022-09-18T05:59:38.102Z,99.99
2022-09-18T06:02:06.891Z,99.99
2022-09-18T06:04:54.824Z,99.99
2022-09-18T06:07:25.541Z,99.99
2022-09-18T06:09:53.394Z,99.99
2022-09-18T06:12:21.299Z,99.99
2022-09-18T06:14:50.285Z,99.99
2022-09-18T06:17:18.969Z,99.99
2022-09-18T06:19:48.314Z,99.99
2022-09-18T06:22:16.222Z,99.99
2022-09-18T06:24:45.903Z,99.99
2022-09-18T06:27:18.995Z,99.99
2022-09-18T06:29:47.290Z,99.99
2022-09-18T06:32:26.021Z,99.99
2022-09-18T06:34:55.445Z,99.99
2022-09-18T06:37:23.404Z,99.99
2022-09-18T06:40:09.489Z,99.99
2022-09-18T06:42:57.210Z,99.99
2022-09-18T06:45:53.294Z,99.99
2022-09-18T06:48:23.774Z,99.99
2022-09-18T06:50:53.488Z,99.99
2022-09-18T06:53:22.731Z,99.99
2022-09-18T06:55:59.997Z,99.99
2022-09-18T06:58:27.932Z,99.99
2022-09-18T07:01:00.711Z,99.99
2022-09-18T07:03:35.340Z,99.99
2022-09-18T07:06:15.032Z,99.99
2022-09-18T07:08:46.732Z,99.99
2022-09-18T07:11:27.068Z,99.99
2022-09-18T07:13:54.888Z,99.99
2022-09-18T07:16:22.820Z,99.99
2022-09-18T07:18:50.828Z,99.99
2022-09-18T07:21:20.978Z,99.99
2022-09-18T07:23:48.866Z,99.99
2022-09-18T07:26:19.111Z,99.99
2022-09-18T07:28:51.823Z,99.99
2022-09-18T07:31:28.037Z,99.99
2022-09-18T07:33:57.107Z,99.99
2022-09-18T07:36:28.534Z,99.99
2022-09-18T07:38:56.598Z,99.99
2022-09-18T07:41:27.898Z,99.99
2022-09-18T07:43:57.323Z,99.99
2022-09-18T07:46:25.448Z,99.99
2022-09-18T07:48:58.058Z,99.99
2022-09-18T07:51:29.922Z,99.99
2022-09-18T07:53:59.793Z,99.99
2022-09-18T07:56:49.240Z,99.94
2022-09-18T07:59:22.902Z,99.33
2022-09-18T08:01:58.135Z,99.14
2022-09-18T08:04:28.487Z,99.83
2022-09-18T08:07:16.311Z,99.99
2022-09-18T08:10:08.310Z,99.99
2022-09-18T08:13:05.637Z,99.99
2022-09-18T08:15:47.530Z,99.99
2022-09-18T08:18:26.454Z,99.99
2022-09-18T08:21:01.399Z,99.99
2022-09-18T08:23:41.839Z,99.99
2022-09-18T08:26:09.865Z,99.99
2022-09-18T08:28:38.364Z,99.99
2022-09-18T08:31:08.766Z,99.99
2022-09-18T08:33:36.765Z,99.99
2022-09-18T08:36:04.771Z,99.99
2022-09-18T08:38:38.395Z,99.99
2022-09-18T08:41:43.918Z,99.99
2022-09-18T08:44:17.813Z,99.99
2022-09-18T08:46:51.914Z,99.99
2022-09-18T08:49:25.745Z,99.99
2022-09-18T08:52:03.687Z,99.99
2022-09-18T08:54:45.293Z,99.99
2022-09-18T08:57:26.297Z,99.99
2022-09-18T09:00:09.625Z,99.99
2022-09-18T09:02:43.715Z,99.99
2022-09-18T09:05:15.115Z,99.99
2022-09-18T09:08:08.971Z,99.99
2022-09-18T09:10:46.056Z,99.99
2022-09-18T09:14:02.494Z,99.99
2022-09-18T09:16:42.719Z,99.99
2022-09-18T09:19:27.791Z,99.99
2022-09-18T09:22:05.460Z,99.99
2022-09-18T09:24:42.549Z,99.99
2022-09-18T09:27:35.663Z,99.99
2022-09-18T09:30:07.031Z,99.99
2022-09-18T09:32:47.739Z,99.99
2022-09-18T09:35:38.236Z,99.99
2022-09-18T09:38:35.993Z,99.99
2022-09-18T09:41:14.598Z,99.99
2022-09-18T09:43:48.049Z,99.99
2022-09-18T09:46:23.969Z,99.99
2022-09-18T09:48:57.901Z,99.99
2022-09-18T09:51:35.889Z,99.99
2022-09-18T09:54:04.057Z,99.99
2022-09-18T09:56:38.802Z,99.99
2022-09-18T09:59:20.330Z,99.99
2022-09-18T10:02:27.491Z,99.99
2022-09-18T10:05:04.135Z,99.99
2022-09-18T10:07:40.368Z,99.99
2022-09-18T10:10:18.718Z,99.99
2022-09-18T10:12:52.891Z,99.99
2022-09-18T10:15:27.070Z,99.99
2022-09-18T10:18:00.492Z,99.99
2022-09-18T10:20:33.097Z,99.99
2022-09-18T10:23:10.033Z,99.99
2022-09-18T10:25:44.553Z,99.99
2022-09-18T10:28:14.298Z,99.99
2022-09-18T10:30:57.946Z,99.99
2022-09-18T10:33:35.702Z,99.99
2022-09-18T10:36:27.049Z,99.99
2022-09-18T10:38:59.664Z,99.99
2022-09-18T10:41:39.320Z,99.99
2022-09-18T10:44:26.067Z,99.99
2022-09-18T10:47:06.405Z,99.99
2022-09-18T10:49:37.392Z,99.99
2022-09-18T10:52:29.930Z,99.99
2022-09-18T10:55:16.415Z,99.99
2022-09-18T10:58:04.677Z,99.99
2022-09-18T11:00:38.088Z,99.99
2022-09-18T11:03:32.337Z,99.99
2022-09-18T11:06:03.064Z,99.99
2022-09-18T11:08:35.364Z,99.99
2022-09-18T11:11:08.595Z,99.99
2022-09-18T11:13:45.353Z,99.99
2022-09-18T11:16:24.563Z,99.99
2022-09-18T11:19:09.606Z,99.99
2022-09-18T11:21:46.352Z,99.99
2022-09-18T11:24:24.154Z,99.99
2022-09-18T11:26:57.873Z,99.99
2022-09-18T11:29:31.776Z,99.99
2022-09-18T11:32:05.019Z,99.99
2022-09-18T11:34:39.735Z,99.99
2022-09-18T11:37:13.954Z,99.99
2022-09-18T11:39:51.500Z,99.99
2022-09-18T11:42:22.710Z,99.99
2022-09-18T11:44:53.369Z,99.99
2022-09-18T11:47:27.916Z,99.99
2022-09-18T11:50:09.718Z,99.99
2022-09-18T11:52:42.616Z,99.99
2022-09-18T11:55:19.838Z,99.99
2022-09-18T11:57:54.502Z,99.99
2022-09-18T12:00:24.492Z,99.99
2022-09-18T12:03:13.822Z,99.99
2022-09-18T12:05:53.575Z,99.99
2022-09-18T12:08:31.601Z,99.99
2022-09-18T12:11:14.260Z,99.99
2022-09-18T12:13:56.734Z,99.99
2022-09-18T12:16:41.378Z,99.99
2022-09-18T12:19:16.961Z,99.99
2022-09-18T12:21:50.978Z,99.99
2022-09-18T12:24:19.084Z,99.99
2022-09-18T12:27:00.441Z,99.99
2022-09-18T12:29:54.457Z,99.99
2022-09-18T12:32:34.157Z,99.99
2022-09-18T12:35:10.277Z,99.99
2022-09-18T12:37:49.983Z,99.99
2022-09-18T12:40:38.527Z,99.99
2022-09-18T12:43:25.159Z,99.99
2022-09-18T12:46:17.667Z,99.99
2022-09-18T12:49:42.242Z,99.99
2022-09-18T12:52:27.681Z,99.99
2022-09-18T12:55:19.884Z,99.99
2022-09-18T12:57:58.899Z,99.99
2022-09-18T13:00:29.096Z,99.80
2022-09-18T13:03:04.442Z,99.68
2022-09-18T13:05:36.544Z,99.99
2022-09-18T13:08:08.692Z,99.99
2022-09-18T13:10:40.661Z,99.99
2022-09-18T13:13:14.742Z,99.99
2022-09-18T13:15:48.338Z,99.50
2022-09-18T13:18:32.508Z,99.80
2022-09-18T13:21:05.212Z,99.42
2022-09-18T13:23:37.948Z,99.50
2022-09-18T13:26:10.954Z,99.99
2022-09-18T13:28:42.507Z,98.90
2022-09-18T13:31:35.103Z,99.29
2022-09-18T13:34:08.159Z,99.99
2022-09-18T13:36:38.903Z,99.99
2022-09-18T13:39:16.979Z,99.93
2022-09-18T13:41:48.493Z,99.22
2022-09-18T13:44:20.633Z,99.62
2022-09-18T13:46:52.032Z,99.67
2022-09-18T13:49:28.347Z,99.31
2022-09-18T13:51:56.950Z,98.80
2022-09-18T13:54:28.084Z,98.80
2022-09-18T13:57:22.107Z,98.34
2022-09-18T13:59:55.655Z,99.07
2022-09-18T14:02:36.468Z,98.46
2022-09-18T14:05:30.643Z,99.32
2022-09-18T14:08:05.341Z,98.27
2022-09-18T14:10:51.300Z,99.04
2022-09-18T14:13:43.205Z,98.71
2022-09-18T14:16:24.669Z,99.09
2022-09-18T14:18:57.683Z,98.89
2022-09-18T14:21:31.834Z,98.66
2022-09-18T14:24:36.494Z,98.13
2022-09-18T14:27:28.931Z,98.97
2022-09-18T14:29:59.402Z,97.97
2022-09-18T14:32:28.443Z,97.03
2022-09-18T14:35:22.922Z,97.84
2022-09-18T14:37:52.277Z,97.88
2022-09-18T14:40:23.118Z,98.09
2022-09-18T14:42:51.321Z,98.00
2022-09-18T14:45:26.355Z,97.92
2022-09-18T14:47:56.323Z,97.27
2022-09-18T14:50:32.433Z,97.55
2022-09-18T14:53:03.622Z,97.68
2022-09-18T14:55:35.932Z,98.92
2022-09-18T14:58:07.736Z,98.75
2022-09-18T15:00:38.491Z,98.73
2022-09-18T15:03:10.153Z,99.06
2022-09-18T15:05:38.396Z,99.00
2022-09-18T15:08:15.651Z,98.96
2022-09-18T15:10:47.917Z,98.00
2022-09-18T15:13:17.822Z,99.10
2022-09-18T15:15:46.578Z,99.49
2022-09-18T15:18:23.770Z,99.36
2022-09-18T15:20:53.394Z,99.91
2022-09-18T15:23:27.671Z,99.46
2022-09-18T15:25:59.630Z,99.03
2022-09-18T15:28:29.737Z,99.52
2022-09-18T15:31:03.450Z,99.07
2022-09-18T15:33:34.203Z,98.74
2022-09-18T15:36:04.676Z,99.03
2022-09-18T15:38:41.040Z,99.07
2022-09-18T15:41:28.985Z,99.54
2022-09-18T15:43:56.982Z,99.72
2022-09-18T15:46:27.550Z,99.27
2022-09-18T15:49:00.345Z,99.53
2022-09-18T15:51:30.211Z,99.45
2022-09-18T15:54:05.340Z,99.40
2022-09-18T15:56:35.140Z,99.42
2022-09-18T15:59:07.689Z,99.50
2022-09-18T16:01:39.801Z,99.54
2022-09-18T16:04:20.382Z,99.75
2022-09-18T16:06:57.769Z,99.99
2022-09-18T16:09:38.295Z,99.20
2022-09-18T16:12:42.679Z,99.71
2022-09-18T16:15:19.874Z,99.76
2022-09-18T16:17:59.012Z,99.86
2022-09-18T16:20:33.871Z,99.85
2022-09-18T16:23:19.699Z,99.99
2022-09-18T16:26:03.475Z,99.76
2022-09-18T16:28:33.624Z,99.96
2022-09-18T16:31:02.517Z,99.99
2022-09-18T16:33:33.948Z,99.89
2022-09-18T16:36:04.640Z,99.82
2022-09-18T16:38:39.709Z,99.37
2022-09-18T16:41:10.569Z,99.63
2022-09-18T16:43:40.757Z,99.65
2022-09-18T16:46:10.514Z,99.79
2022-09-18T16:48:38.557Z,99.99
2022-09-18T16:51:06.670Z,99.99
2022-09-18T16:53:35.961Z,99.99
2022-09-18T16:56:07.025Z,99.99
2022-09-18T16:58:38.906Z,99.99
2022-09-18T17:01:07.887Z,99.99
2022-09-18T17:03:35.859Z,99.99
2022-09-18T17:06:03.830Z,98.95
2022-09-18T17:08:31.814Z,98.61
2022-09-18T17:10:59.744Z,99.22
2022-09-18T17:13:27.644Z,99.99
2022-09-18T17:16:01.142Z,99.97
2022-09-18T17:18:29.984Z,99.99
2022-09-18T17:21:01.570Z,99.99
2022-09-18T17:23:30.683Z,99.99
2022-09-18T17:26:05.799Z,99.99
2022-09-18T17:28:33.798Z,99.90
2022-09-18T17:31:09.592Z,99.99
2022-09-18T17:33:37.738Z,99.70
2022-09-18T17:36:06.356Z,99.59
2022-09-18T17:38:34.631Z,99.83
2022-09-18T17:41:04.288Z,99.99
2022-09-18T17:43:32.411Z,99.99
2022-09-18T17:46:01.741Z,99.33
2022-09-18T17:48:32.212Z,99.65
2022-09-18T17:51:03.210Z,98.72
2022-09-18T17:53:32.076Z,97.76
2022-09-18T17:56:00.374Z,98.10
2022-09-18T17:58:29.587Z,97.85
2022-09-18T18:00:58.176Z,98.31
2022-09-18T18:03:27.919Z,98.32
2022-09-18T18:05:58.923Z,98.72
2022-09-18T18:08:28.240Z,98.37
2022-09-18T18:10:56.924Z,98.17
2022-09-18T18:13:24.935Z,98.67
2022-09-18T18:15:53.788Z,99.18
2022-09-18T18:18:21.798Z,99.33
2022-09-18T18:20:53.675Z,99.17
2022-09-18T18:23:23.524Z,98.85
2022-09-18T18:25:52.634Z,99.16
2022-09-18T18:28:21.399Z,99.22
2022-09-18T18:31:02.229Z,99.32
2022-09-18T18:33:32.048Z,99.99
2022-09-18T18:36:09.678Z,99.99
2022-09-18T18:38:39.116Z,99.99
2022-09-18T18:41:07.646Z,99.99
2022-09-18T18:43:37.689Z,99.99
2022-09-18T18:46:06.777Z,99.99
2022-09-18T18:48:34.945Z,99.99
2022-09-18T18:51:04.878Z,99.99
2022-09-18T18:53:32.950Z,99.99
2022-09-18T18:56:03.285Z,99.99
2022-09-18T18:58:32.107Z,99.99
2022-09-18T19:01:06.405Z,99.99
2022-09-18T19:03:39.356Z,99.99
2022-09-18T19:06:08.268Z,99.99
2022-09-18T19:08:36.747Z,99.99
2022-09-18T19:11:07.455Z,99.99
2022-09-18T19:13:44.826Z,99.99
2022-09-18T19:16:13.725Z,99.99
2022-09-18T19:18:42.126Z,99.99
2022-09-18T19:21:10.132Z,99.99
2022-09-18T19:23:38.103Z,99.99
2022-09-18T19:26:07.580Z,99.99
2022-09-18T19:28:35.533Z,99.99
2022-09-18T19:31:05.152Z,99.99
2022-09-18T19:33:34.033Z,99.99
2022-09-18T19:36:09.241Z,99.99
2022-09-18T19:38:37.448Z,99.99
2022-09-18T19:41:13.174Z,99.99
2022-09-18T19:43:41.307Z,99.99
2022-09-18T19:46:14.868Z,99.99
2022-09-18T19:48:44.004Z,99.99
2022-09-18T19:51:12.060Z,99.99
2022-09-18T19:53:40.203Z,99.99
2022-09-18T19:56:27.476Z,99.99
2022-09-18T19:58:59.515Z,99.99
2022-09-18T20:01:27.426Z,99.99
2022-09-18T20:03:56.598Z,99.99
2022-09-18T20:06:25.997Z,99.99
2022-09-18T20:08:54.132Z,99.99
2022-09-18T20:11:23.949Z,99.99
2022-09-18T20:13:54.460Z,99.99
2022-09-18T20:16:26.496Z,99.99
2022-09-18T20:18:55.776Z,99.99
2022-09-18T20:21:24.227Z,99.99
2022-09-18T20:23:59.406Z,99.99
2022-09-18T20:26:29.353Z,99.99
2022-09-18T20:28:57.793Z,99.99
2022-09-18T20:31:26.606Z,99.99
2022-09-18T20:33:55.842Z,99.99
2022-09-18T20:36:25.719Z,99.99
2022-09-18T20:39:00.897Z,99.99
2022-09-18T20:41:31.137Z,99.99
2022-09-18T20:44:05.166Z,99.99
2022-09-18T20:46:37.316Z,99.99
2022-09-18T20:49:06.995Z,99.99
2022-09-18T20:51:36.132Z,99.99
2022-09-18T20:54:06.973Z,99.99
2022-09-18T20:56:42.012Z,99.99
2022-09-18T20:59:11.216Z,99.99
2022-09-18T21:01:40.346Z,99.99
2022-09-18T21:04:09.545Z,99.99
2022-09-18T21:06:38.477Z,99.99
2022-09-18T21:09:09.443Z,99.99
2022-09-18T21:11:41.947Z,99.99
2022-09-18T21:14:12.744Z,99.99
2022-09-18T21:16:42.985Z,99.99
2022-09-18T21:19:12.848Z,99.99
2022-09-18T21:21:41.658Z,99.99
2022-09-18T21:24:10.324Z,99.99
2022-09-18T21:26:41.490Z,99.99
2022-09-18T21:29:12.884Z,99.99
2022-09-18T21:31:43.322Z,99.99
2022-09-18T21:34:13.591Z,99.99
2022-09-18T21:36:45.077Z,99.99
2022-09-18T21:39:14.671Z,99.99
2022-09-18T21:41:46.451Z,99.99
2022-09-18T21:44:16.218Z,99.99
2022-09-18T21:46:46.246Z,99.99
2022-09-18T21:49:16.274Z,99.99
2022-09-18T21:51:45.504Z,99.99
2022-09-18T21:54:17.664Z,99.99
2022-09-18T21:56:48.957Z,99.99
2022-09-18T21:59:16.954Z,99.99
2022-09-18T22:01:45.044Z,99.99
2022-09-18T22:04:13.403Z,99.99
2022-09-18T22:06:43.051Z,99.99
2022-09-18T22:09:14.557Z,99.99
2022-09-18T22:11:43.673Z,99.99
2022-09-18T22:14:15.619Z,99.99
2022-09-18T22:16:45.752Z,99.99
2022-09-18T22:19:14.521Z,99.46
2022-09-18T22:21:45.367Z,99.49
2022-09-18T22:24:17.848Z,99.57
2022-09-18T22:26:48.084Z,99.40
2022-09-18T22:29:19.481Z,99.82
2022-09-18T22:31:47.690Z,99.99
2022-09-18T22:34:17.533Z,99.99
2022-09-18T22:36:46.234Z,99.99
2022-09-18T22:39:15.093Z,99.99
2022-09-18T22:41:43.060Z,99.99
2022-09-18T22:44:11.748Z,99.99
2022-09-18T22:46:42.740Z,99.99
2022-09-18T22:49:13.663Z,99.99
2022-09-18T22:51:42.289Z,99.99
2022-09-18T22:54:10.584Z,99.99
2022-09-18T22:56:40.330Z,99.99
2022-09-18T22:59:09.757Z,99.99
2022-09-18T23:01:42.441Z,99.99
2022-09-18T23:04:12.655Z,99.99
2022-09-18T23:06:43.744Z,99.99
2022-09-18T23:09:13.824Z,99.99
2022-09-18T23:11:42.966Z,99.99
2022-09-18T23:14:15.041Z,99.99
2022-09-18T23:16:43.240Z,99.99
2022-09-18T23:19:17.503Z,99.99
2022-09-18T23:21:45.555Z,99.99
2022-09-18T23:24:15.950Z,99.99
2022-09-18T23:26:45.964Z,99.99
2022-09-18T23:29:14.827Z,99.99
2022-09-18T23:31:44.460Z,99.99
2022-09-18T23:34:16.095Z,99.99
2022-09-18T23:36:45.787Z,99.99
2022-09-18T23:39:15.574Z,99.99
2022-09-18T23:41:44.343Z,99.99
2022-09-18T23:44:13.914Z,99.99
2022-09-18T23:46:42.904Z,99.99
2022-09-18T23:49:12.427Z,99.99
2022-09-18T23:51:44.313Z,99.99
2022-09-18T23:54:16.996Z,99.99
2022-09-18T23:56:45.511Z,99.99
2022-09-18T23:59:14.381Z,99.99
